Time;durP1;ratioP1;P1;durP2;ratioP2;P2;SDS_P1;SDS_P2;PMS_P1;PMS_P2;Temp;Humidity;BMP_temperature;BMP_pressure;BME280_temperature;BME280_humidity;BME280_pressure;Samples;Min_cycle;Max_cycle;Signal;HPM_P1;HPM_P2
2021/01/06 00:02:06;;;;;;;10.90;6.57;;;5.00;50.60;;;;;;5072704;28;20176;-68
2021/01/06 00:04:32;;;;;;;10.53;6.97;;;5.00;22.30;;;;;;5072731;28;20165;-68
2021/01/06 00:06:57;;;;;;;9.40;6.30;;;4.60;77.00;;;;;;5072649;28;20180;-68
2021/01/06 00:09:23;;;;;;;11.10;7.33;;;4.70;99.90;;;;;;5072929;28;20233;-68
2021/01/06 00:11:48;;;;;;;7.63;5.63;;;4.80;99.90;;;;;;5072710;28;20176;-67
2021/01/06 00:14:15;;;;;;;7.93;5.30;;;4.80;99.90;;;;;;5072882;28;20718;-69
2021/01/06 00:16:41;;;;;;;8.98;6.07;;;4.80;99.90;;;;;;5072499;28;20668;-68
2021/01/06 00:19:08;;;;;;;9.75;5.72;;;4.70;99.90;;;;;;5072527;28;20226;-68
2021/01/06 00:21:37;;;;;;;12.27;7.28;;;4.80;99.90;;;;;;5072620;28;20179;-68
2021/01/06 00:24:04;;;;;;;10.02;7.60;;;4.70;99.90;;;;;;5072852;28;20250;-68
2021/01/06 00:26:36;;;;;;;10.15;5.85;;;4.90;99.90;;;;;;5072848;28;20180;-67
2021/01/06 00:29:06;;;;;;;9.07;5.57;;;5.00;99.90;;;;;;5075585;28;20344;-67
2021/01/06 00:31:39;;;;;;;7.85;5.28;;;5.10;99.90;;;;;;5076433;28;20198;-68
2021/01/06 00:34:05;;;;;;;8.50;5.70;;;5.20;99.90;;;;;;5076391;28;20152;-68
2021/01/06 00:36:31;;;;;;;9.43;5.72;;;5.00;99.90;;;;;;5075995;28;20234;-68
2021/01/06 00:38:57;;;;;;;9.73;6.50;;;4.80;99.90;;;;;;5076075;28;20212;-68
2021/01/06 00:41:30;;;;;;;8.80;5.30;;;5.00;99.90;;;;;;5075982;28;20830;-68
2021/01/06 00:43:56;;;;;;;7.78;5.28;;;4.60;99.90;;;;;;5075930;28;20190;-68
2021/01/06 00:46:26;;;;;;;9.10;6.03;;;4.80;99.90;;;;;;5075808;28;20175;-68
2021/01/06 00:48:52;;;;;;;7.78;5.50;;;4.80;99.90;;;;;;5075814;28;20204;-67
2021/01/06 00:51:17;;;;;;;9.13;5.27;;;5.00;99.90;;;;;;5075853;28;20275;-68
2021/01/06 00:53:43;;;;;;;6.70;4.70;;;5.20;99.90;;;;;;5075810;28;20168;-68
2021/01/06 00:56:08;;;;;;;6.83;4.67;;;4.80;99.90;;;;;;5075671;28;20196;-68
2021/01/06 00:58:34;;;;;;;8.87;4.80;;;4.90;99.90;;;;;;5075922;28;20175;-68
2021/01/06 01:00:59;;;;;;;9.47;5.50;;;4.60;99.90;;;;;;5075607;28;20203;-68
2021/01/06 01:03:25;;;;;;;7.63;5.43;;;4.70;99.90;;;;;;5075907;28;20160;-68
2021/01/06 01:05:51;;;;;;;7.07;4.73;;;5.00;99.90;;;;;;5075590;28;20164;-68
2021/01/06 01:08:16;;;;;;;6.80;5.10;;;4.70;99.90;;;;;;5075512;28;20172;-67
2021/01/06 01:10:50;;;;;;;7.50;5.37;;;4.40;99.90;;;;;;5075631;28;20234;-67
2021/01/06 01:13:24;;;;;;;6.45;4.63;;;4.70;99.90;;;;;;5075468;28;20666;-68
2021/01/06 01:15:54;;;;;;;7.57;4.68;;;4.70;99.90;;;;;;5075318;28;20171;-68
2021/01/06 01:18:22;;;;;;;6.75;4.80;;;5.00;99.90;;;;;;5075520;28;20180;-68
2021/01/06 01:20:51;;;;;;;7.50;4.82;;;4.80;99.90;;;;;;5075175;28;20202;-68
2021/01/06 01:23:19;;;;;;;7.20;5.00;;;4.80;99.90;;;;;;5075529;28;20170;-68
2021/01/06 01:25:45;;;;;;;7.13;4.75;;;4.80;99.90;;;;;;5075452;28;20172;-68
2021/01/06 01:28:12;;;;;;;9.07;5.20;;;4.60;99.90;;;;;;5075426;28;20168;-68
2021/01/06 01:30:37;;;;;;;7.35;5.03;;;4.50;99.90;;;;;;5075037;28;20422;-68
2021/01/06 01:33:03;;;;;;;6.60;4.70;;;4.90;99.90;;;;;;5075043;28;20168;-69
2021/01/06 01:35:31;;;;;;;6.72;4.68;;;4.60;99.90;;;;;;5075006;28;20247;-68
2021/01/06 01:37:59;;;;;;;11.88;4.75;;;4.80;99.90;;;;;;5074763;28;20200;-68
2021/01/06 01:40:26;;;;;;;6.07;4.78;;;4.90;99.90;;;;;;5073805;28;20184;-68
2021/01/06 01:42:59;;;;;;;9.30;5.30;;;4.70;99.90;;;;;;5074954;28;20172;-68
2021/01/06 01:45:27;;;;;;;6.82;5.30;;;4.60;1.00;;;;;;5075072;28;20205;-68
2021/01/06 01:48:00;;;;;;;6.60;5.15;;;4.70;99.90;;;;;;5074490;28;20172;-68
2021/01/06 01:50:26;;;;;;;8.43;5.43;;;4.80;99.90;;;;;;5074549;28;20195;-68
2021/01/06 01:52:59;;;;;;;8.83;5.13;;;4.80;99.90;;;;;;5074833;28;20183;-68
2021/01/06 01:55:26;;;;;;;7.68;4.97;;;4.90;99.90;;;;;;5074783;28;20168;-68
2021/01/06 01:57:59;;;;;;;8.63;6.18;;;4.60;99.90;;;;;;5074630;28;20630;-68
2021/01/06 02:00:29;;;;;;;7.93;4.80;;;4.30;1.00;;;;;;5074424;28;20700;-68
2021/01/06 02:03:07;;;;;;;7.65;5.85;;;4.20;1.00;;;;;;5074608;28;20174;-68
2021/01/06 02:06:04;;;;;;;8.77;5.30;;;4.30;99.90;;;;;;5074320;28;20210;-68
2021/01/06 02:08:36;;;;;;;7.18;5.00;;;4.30;99.90;;;;;;5073747;28;20176;-68
2021/01/06 02:11:07;;;;;;;10.38;4.63;;;4.40;1.00;;;;;;5074247;28;20161;-68
2021/01/06 02:13:43;;;;;;;8.18;4.80;;;4.40;1.00;;;;;;5074441;28;20156;-67
2021/01/06 02:16:18;;;;;;;7.50;5.43;;;4.60;1.00;;;;;;5074252;28;20644;-68
2021/01/06 02:18:44;;;;;;;7.82;5.45;;;4.70;99.90;;;;;;5074215;28;20520;-68
2021/01/06 02:21:19;;;;;;;6.90;4.70;;;4.70;99.90;;;;;;5074004;28;20164;-68
2021/01/06 02:23:49;;;;;;;7.55;4.97;;;4.80;99.90;;;;;;5073914;28;20171;-68
2021/01/06 02:26:15;;;;;;;6.90;5.03;;;4.70;99.90;;;;;;5074140;28;20259;-68
2021/01/06 02:28:41;;;;;;;7.72;5.28;;;4.60;99.90;;;;;;5073661;28;20175;-68
2021/01/06 02:31:07;;;;;;;6.75;5.18;;;4.50;1.00;;;;;;5074038;28;20176;-68
2021/01/06 02:33:35;;;;;;;6.47;4.97;;;4.70;1.00;;;;;;5073874;28;20690;-68
2021/01/06 02:36:01;;;;;;;7.95;5.53;;;4.70;1.00;;;;;;5074030;28;20199;-68
2021/01/06 02:38:28;;;;;;;10.10;6.23;;;4.80;1.00;;;;;;5073717;28;20579;-68
2021/01/06 02:40:54;;;;;;;10.35;6.57;;;4.70;1.00;;;;;;5073718;28;20251;-68
2021/01/06 02:43:22;;;;;;;7.03;5.57;;;4.70;1.00;;;;;;5073629;28;20532;-68
2021/01/06 02:45:48;;;;;;;9.43;6.57;;;4.70;1.00;;;;;;5073663;28;20195;-68
2021/01/06 02:48:14;;;;;;;8.13;4.60;;;4.50;1.00;;;;;;5073540;28;20187;-68
2021/01/06 02:50:43;;;;;;;8.45;5.03;;;4.60;1.00;;;;;;5073416;28;20194;-68
2021/01/06 02:53:14;;;;;;;7.18;5.13;;;4.40;99.90;;;;;;5073343;28;20174;-68
2021/01/06 02:55:41;;;;;;;6.78;4.45;;;4.60;1.00;;;;;;5073303;28;20180;-68
2021/01/06 02:58:13;;;;;;;11.77;6.45;;;4.60;1.00;;;;;;5073585;28;20164;-68
2021/01/06 03:00:39;;;;;;;9.07;6.10;;;4.50;1.00;;;;;;5073214;28;20219;-68
2021/01/06 03:03:12;;;;;;;7.23;5.30;;;4.70;1.00;;;;;;5073189;28;20195;-68
2021/01/06 03:05:45;;;;;;;7.15;5.07;;;4.60;99.90;;;;;;5073523;28;20160;-68
2021/01/06 03:08:13;;;;;;;6.60;5.30;;;4.60;99.90;;;;;;5073159;28;20587;-68
2021/01/06 03:10:39;;;;;;;6.40;5.10;;;4.40;1.00;;;;;;5071971;28;20194;-68
2021/01/06 03:13:05;;;;;;;7.67;5.53;;;4.40;1.00;;;;;;5073193;28;20255;-68
2021/01/06 03:15:30;;;;;;;7.03;5.20;;;4.70;1.00;;;;;;5073105;28;20164;-68
2021/01/06 03:17:58;;;;;;;7.20;5.53;;;4.80;99.90;;;;;;5073265;28;20222;-68
2021/01/06 03:20:34;;;;;;;7.22;5.75;;;4.70;99.90;;;;;;5073214;28;20192;-68
2021/01/06 03:23:06;;;;;;;6.90;5.22;;;4.70;1.00;;;;;;5073352;28;20159;-68
2021/01/06 03:25:32;;;;;;;6.95;4.60;;;4.80;1.00;;;;;;5073368;28;20528;-68
2021/01/06 03:27:59;;;;;;;8.63;6.47;;;4.80;1.00;;;;;;5073535;28;20172;-68
2021/01/06 03:30:30;;;;;;;7.80;5.15;;;4.80;99.90;;;;;;5073918;28;20195;-68
2021/01/06 03:33:24;;;;;;;8.43;5.65;;;4.90;1.00;;;;;;5073243;28;20510;-68
2021/01/06 03:36:04;;;;;;;7.40;4.75;;;4.80;1.00;;;;;;5073018;28;20206;-68
2021/01/06 03:39:15;;;;;;;7.95;5.00;;;4.90;1.00;;;;;;5073033;28;20160;-69
2021/01/06 03:41:41;;;;;;;8.60;4.95;;;5.00;99.90;;;;;;5031302;28;20180;-68
2021/01/06 03:44:09;;;;;;;6.50;4.82;;;4.90;99.90;;;;;;5067453;28;20180;-68
2021/01/06 03:46:58;;;;;;;8.40;5.18;;;4.60;1.00;;;;;;5072737;28;20649;-68
2021/01/06 03:49:59;;;;;;;6.40;5.18;;;4.70;99.90;;;;;;5072754;28;20692;-67
2021/01/06 03:52:47;;;;;;;7.85;5.15;;;4.80;99.90;;;;;;5072713;28;20620;-68
2021/01/06 03:55:48;;;;;;;6.47;5.38;;;4.90;1.00;;;;;;5072812;28;20156;-68
2021/01/06 03:59:01;;;;;;;6.85;5.55;;;5.00;1.00;;;;;;5072976;28;20156;-68
2021/01/06 04:01:37;;;;;;;6.85;5.20;;;5.00;1.00;;;;;;5030721;28;20180;-68
2021/01/06 04:04:03;;;;;;;7.03;5.07;;;5.00;1.00;;;;;;5033833;28;20185;-67
2021/01/06 04:06:30;;;;;;;7.80;5.20;;;5.00;1.00;;;;;;5057819;28;20676;-68
2021/01/06 04:08:59;;;;;;;8.50;5.45;;;5.00;1.00;;;;;;5076599;28;20187;-68
2021/01/06 04:11:33;;;;;;;8.68;5.15;;;5.00;1.00;;;;;;5076743;28;20242;-67
2021/01/06 04:13:58;;;;;;;7.45;5.25;;;5.00;1.00;;;;;;5076549;28;20161;-68
2021/01/06 04:16:25;;;;;;;9.20;5.30;;;5.00;1.00;;;;;;5076354;28;20192;-68
2021/01/06 04:18:51;;;;;;;6.22;5.15;;;4.90;1.00;;;;;;5076282;28;20529;-68
2021/01/06 04:21:17;;;;;;;7.68;5.68;;;4.70;1.00;;;;;;5076472;28;20164;-68
2021/01/06 04:23:42;;;;;;;7.40;4.67;;;4.70;6.90;;;;;;5076215;28;20164;-68
2021/01/06 04:26:14;;;;;;;8.77;5.27;;;4.60;99.90;;;;;;5076453;28;20261;-69
2021/01/06 04:28:41;;;;;;;8.00;6.00;;;4.80;1.00;;;;;;5076470;28;20165;-68
2021/01/06 04:31:08;;;;;;;8.18;5.70;;;4.90;99.90;;;;;;5076073;28;20672;-67
2021/01/06 04:33:40;;;;;;;7.45;5.20;;;5.10;1.00;;;;;;5076065;28;20178;-68
2021/01/06 04:36:27;;;;;;;7.53;4.90;;;5.00;1.00;;;;;;5075913;28;20671;-68
2021/01/06 04:38:55;;;;;;;8.23;4.57;;;4.80;1.00;;;;;;5076234;28;20592;-68
2021/01/06 04:41:39;;;;;;;8.50;5.38;;;4.90;1.00;;;;;;5075848;28;20160;-68
2021/01/06 04:44:42;;;;;;;5.72;3.90;;;4.90;99.90;;;;;;5076111;28;20160;-68
2021/01/06 04:47:37;;;;;;;7.88;4.55;;;4.80;99.90;;;;;;5075798;28;20652;-68
2021/01/06 04:50:29;;;;;;;5.00;3.80;;;4.70;1.00;;;;;;5075849;28;20216;-68
2021/01/06 04:53:14;;;;;;;6.10;4.15;;;4.60;1.00;;;;;;5076001;28;20169;-68
2021/01/06 04:55:46;;;;;;;6.40;4.40;;;4.80;1.00;;;;;;5075831;28;20157;-68
2021/01/06 04:58:17;;;;;;;6.45;5.00;;;5.00;1.00;;;;;;5075657;28;20172;-69
2021/01/06 05:01:24;;;;;;;8.10;4.28;;;4.80;1.00;;;;;;5075437;28;20192;-68
2021/01/06 05:03:55;;;;;;;3.40;3.08;;;5.10;99.90;;;;;;5042168;28;20184;-68
2021/01/06 05:06:47;;;;;;;8.68;4.47;;;5.10;99.90;;;;;;5075357;28;20180;-68
2021/01/06 05:09:26;;;;;;;5.93;4.40;;;5.10;99.90;;;;;;5075008;28;20241;-68
2021/01/06 05:11:59;;;;;;;4.30;3.65;;;5.00;1.00;;;;;;5075378;28;20470;-68
2021/01/06 05:14:33;;;;;;;6.05;3.75;;;5.00;1.00;;;;;;5075132;28;20153;-68
2021/01/06 05:16:59;;;;;;;5.22;4.15;;;5.20;1.00;;;;;;5075232;28;20242;-68
2021/01/06 05:19:31;;;;;;;5.97;3.97;;;4.90;99.90;;;;;;5074750;28;20707;-68
2021/01/06 05:21:58;;;;;;;4.35;3.67;;;4.90;1.00;;;;;;5074975;28;20156;-68
2021/01/06 05:24:39;;;;;;;7.00;4.10;;;4.80;1.00;;;;;;5075111;28;20221;-68
2021/01/06 05:27:14;;;;;;;6.53;5.03;;;4.70;1.00;;;;;;5074684;28;20156;-67
2021/01/06 05:29:46;;;;;;;6.20;4.85;;;4.90;1.00;;;;;;5074839;28;20210;-68
2021/01/06 05:32:37;;;;;;;6.22;4.53;;;4.90;1.00;;;;;;5074895;28;20164;-68
2021/01/06 05:35:08;;;;;;;4.90;3.60;;;4.90;1.00;;;;;;5074957;28;20620;-69
2021/01/06 05:37:33;;;;;;;6.55;4.50;;;5.00;1.00;;;;;;5074492;28;20231;-69
2021/01/06 05:40:05;;;;;;;9.13;3.90;;;5.10;1.00;;;;;;5074692;28;20189;-69
2021/01/06 05:42:41;;;;;;;7.10;3.97;;;4.90;1.00;;;;;;5074774;28;20168;-68
2021/01/06 05:45:07;;;;;;;5.32;4.20;;;4.80;1.00;;;;;;5074773;28;20152;-68
2021/01/06 05:47:40;;;;;;;6.13;4.18;;;4.90;1.00;;;;;;5075296;28;20180;-68
2021/01/06 05:50:14;;;;;;;7.47;4.50;;;4.70;1.00;;;;;;5074620;28;20307;-68
2021/01/06 05:52:40;;;;;;;5.65;4.57;;;4.80;1.00;;;;;;5075122;28;20183;-68
2021/01/06 05:55:13;;;;;;;5.03;4.25;;;4.80;1.00;;;;;;5075188;28;20314;-68
2021/01/06 05:58:02;;;;;;;4.80;3.88;;;4.80;1.00;;;;;;5074915;28;20196;-68
2021/01/06 06:00:46;;;;;;;7.40;4.10;;;4.60;99.90;;;;;;5074738;28;20188;-68
2021/01/06 06:03:40;;;;;;;5.28;4.15;;;4.60;1.00;;;;;;5074595;28;20144;-68
2021/01/06 06:06:43;;;;;;;6.65;4.97;;;4.60;1.00;;;;;;5059212;28;20184;-68
2021/01/06 06:09:30;;;;;;;5.93;4.82;;;4.70;99.90;;;;;;5074369;28;20188;-68
2021/01/06 06:12:19;;;;;;;6.32;4.53;;;4.60;99.90;;;;;;5074603;28;20152;-68
2021/01/06 06:14:44;;;;;;;4.22;3.80;;;4.70;99.90;;;;;;5074218;28;20172;-68
2021/01/06 06:17:20;;;;;;;4.67;3.67;;;5.00;99.90;;;;;;5074122;28;20192;-68
2021/01/06 06:20:28;;;;;;;6.40;4.32;;;4.80;99.90;;;;;;5074367;28;20214;-68
2021/01/06 06:23:20;;;;;;;5.90;4.57;;;5.10;99.90;;;;;;5074061;28;20171;-68
2021/01/06 06:26:13;;;;;;;7.15;4.78;;;5.20;99.90;;;;;;5073989;28;20161;-68
2021/01/06 06:28:45;;;;;;;5.13;4.10;;;4.80;99.90;;;;;;5073834;28;20172;-68
2021/01/06 06:31:25;;;;;;;6.30;3.78;;;4.80;99.90;;;;;;5074014;28;20225;-68
2021/01/06 06:33:56;;;;;;;7.32;4.43;;;4.60;99.90;;;;;;5073833;28;20187;-68
2021/01/06 06:36:24;;;;;;;8.15;4.60;;;4.70;99.90;;;;;;5073562;28;20234;-68
2021/01/06 06:38:51;;;;;;;5.78;4.43;;;4.60;99.90;;;;;;5073695;28;20587;-68
2021/01/06 06:41:22;;;;;;;5.85;4.50;;;4.60;99.90;;;;;;5073483;28;20175;-66
2021/01/06 06:44:09;;;;;;;5.80;4.63;;;4.60;99.90;;;;;;5073414;28;20203;-68
2021/01/06 06:46:53;;;;;;;12.07;6.40;;;4.60;99.90;;;;;;5073587;28;20160;-67
2021/01/06 06:49:25;;;;;;;7.78;5.35;;;4.90;99.90;;;;;;5073256;28;20234;-68
2021/01/06 06:52:16;;;;;;;7.18;5.55;;;4.80;99.90;;;;;;5073814;28;20540;-68
2021/01/06 06:55:06;;;;;;;8.82;5.68;;;4.80;99.90;;;;;;5073826;28;20160;-68
2021/01/06 06:57:36;;;;;;;7.57;5.50;;;4.70;99.90;;;;;;5073171;28;20557;-68
2021/01/06 07:00:27;;;;;;;8.65;5.50;;;4.90;99.90;;;;;;5072943;28;20184;-68
2021/01/06 07:02:58;;;;;;;6.90;5.38;;;4.60;99.90;;;;;;5073629;28;20156;-68
2021/01/06 07:05:29;;;;;;;8.20;5.68;;;4.50;99.90;;;;;;5073320;28;20149;-68
2021/01/06 07:08:01;;;;;;;10.02;6.53;;;4.50;99.90;;;;;;5073250;28;20181;-68
2021/01/06 07:10:32;;;;;;;9.65;6.28;;;4.40;99.90;;;;;;5073697;28;20211;-68
2021/01/06 07:13:03;;;;;;;6.85;5.70;;;4.60;99.90;;;;;;5073048;28;20173;-67
2021/01/06 07:15:40;;;;;;;8.90;6.72;;;4.60;99.90;;;;;;5073401;28;20153;-68
2021/01/06 07:18:57;;;;;;;7.88;5.55;;;4.60;99.90;;;;;;5073021;28;20187;-68
2021/01/06 07:21:33;;;;;;;6.95;5.55;;;4.70;99.90;;;;;;5064309;28;20497;-67
2021/01/06 07:23:59;;;;;;;6.50;5.80;;;4.60;99.90;;;;;;5072859;28;20187;-68
2021/01/06 07:26:27;;;;;;;10.00;6.70;;;4.40;99.90;;;;;;5073041;28;20202;-68
2021/01/06 07:29:09;;;;;;;9.82;6.70;;;4.50;99.90;;;;;;5072892;28;20231;-68
2021/01/06 07:32:05;;;;;;;11.15;6.85;;;4.60;99.90;;;;;;5073089;28;20156;-67
2021/01/06 07:34:54;;;;;;;10.88;6.38;;;4.70;99.90;;;;;;5070064;28;20192;-68
2021/01/06 07:37:28;;;;;;;8.90;6.72;;;4.40;99.90;;;;;;5071707;28;20636;-68
2021/01/06 07:40:07;;;;;;;7.80;6.38;;;4.60;99.90;;;;;;5072864;28;20180;-68
2021/01/06 07:42:39;;;;;;;8.60;5.85;;;4.60;99.90;;;;;;5073135;28;20172;-68
2021/01/06 07:45:20;;;;;;;9.07;6.05;;;4.30;99.90;;;;;;5073343;28;20165;-68
2021/01/06 07:47:54;;;;;;;10.65;6.97;;;4.70;99.90;;;;;;5073048;28;20160;-68
2021/01/06 07:50:24;;;;;;;11.02;7.68;;;4.70;99.90;;;;;;5072959;28;20199;-68
2021/01/06 07:53:05;;;;;;;9.32;6.03;;;4.70;99.90;;;;;;5072963;28;20259;-68
2021/01/06 07:55:34;;;;;;;8.45;5.97;;;4.60;99.90;;;;;;5073260;28;20164;-68
2021/01/06 07:58:16;;;;;;;8.50;6.55;;;4.60;99.90;;;;;;5072779;28;20692;-68
2021/01/06 08:01:13;;;;;;;11.32;6.68;;;4.60;99.90;;;;;;5072514;28;20196;-68
2021/01/06 08:03:48;;;;;;;18.45;6.47;;;4.90;99.90;;;;;;5073070;28;20153;-67
2021/01/06 08:06:14;;;;;;;8.93;5.97;;;4.70;99.90;;;;;;5072815;28;20574;-68
2021/01/06 08:08:51;;;;;;;8.02;4.70;;;4.60;99.90;;;;;;5072906;28;20180;-68
2021/01/06 08:11:20;;;;;;;8.95;6.00;;;4.80;99.90;;;;;;5072869;28;20247;-68
2021/01/06 08:13:52;;;;;;;11.18;8.50;;;4.80;99.90;;;;;;5072614;28;20172;-68
2021/01/06 08:16:39;;;;;;;8.20;6.57;;;4.90;99.90;;;;;;5072436;28;20278;-68
2021/01/06 08:19:22;;;;;;;10.30;7.50;;;5.00;99.90;;;;;;5072306;28;20246;-67
2021/01/06 08:21:53;;;;;;;9.80;6.10;;;4.90;99.90;;;;;;5071383;28;20171;-68
2021/01/06 08:24:21;;;;;;;6.90;5.25;;;4.90;99.90;;;;;;5072759;28;20148;-68
2021/01/06 08:26:50;;;;;;;11.55;5.50;;;4.90;99.90;;;;;;5072242;28;20206;-68
2021/01/06 08:29:27;;;;;;;10.88;7.07;;;4.70;99.90;;;;;;5072524;28;20275;-68
2021/01/06 08:31:57;;;;;;;11.63;6.15;;;5.00;99.90;;;;;;5072735;28;20178;-68
2021/01/06 08:34:35;;;;;;;11.05;5.22;;;4.60;99.90;;;;;;5072609;28;20169;-66
2021/01/06 08:37:07;;;;;;;7.40;5.10;;;4.90;99.90;;;;;;5072441;28;20231;-67
2021/01/06 08:39:50;;;;;;;8.13;5.45;;;5.10;99.90;;;;;;5072509;28;20242;-68
2021/01/06 08:42:21;;;;;;;8.00;5.63;;;5.20;99.90;;;;;;5072552;28;20489;-67
2021/01/06 08:44:57;;;;;;;6.97;6.15;;;5.10;99.90;;;;;;5072107;28;20168;-67
2021/01/06 08:47:41;;;;;;;7.45;6.13;;;4.90;99.90;;;;;;5072328;28;20528;-68
2021/01/06 08:50:15;;;;;;;11.25;5.80;;;4.70;99.90;;;;;;5074698;28;20340;-68
2021/01/06 08:52:42;;;;;;;7.03;5.72;;;4.80;99.90;;;;;;5075542;28;20168;-68
2021/01/06 08:55:25;;;;;;;8.85;6.20;;;5.00;99.90;;;;;;5076047;28;20490;-68
2021/01/06 08:58:06;;;;;;;9.77;6.30;;;4.90;99.90;;;;;;5075798;28;20220;-68
2021/01/06 09:00:42;;;;;;;10.80;6.22;;;5.20;74.30;;;;;;5075670;28;20276;-68
2021/01/06 09:03:07;;;;;;;8.50;6.65;;;4.60;99.90;;;;;;5075739;28;20273;-67
2021/01/06 09:05:48;;;;;;;8.03;6.90;;;4.50;99.90;;;;;;5075845;28;20182;-68
2021/01/06 09:08:18;;;;;;;8.18;7.28;;;4.60;99.90;;;;;;5075614;28;20509;-68
2021/01/06 09:10:56;;;;;;;7.65;6.22;;;5.00;99.90;;;;;;5076249;28;20187;-69
2021/01/06 09:13:31;;;;;;;10.35;7.03;;;4.90;99.90;;;;;;5075747;28;20569;-68
2021/01/06 09:16:20;;;;;;;9.90;7.00;;;5.00;99.90;;;;;;5076264;28;20167;-69
2021/01/06 09:18:56;;;;;;;10.60;6.97;;;4.90;99.90;;;;;;5075158;28;20184;-69
2021/01/06 09:21:25;;;;;;;8.00;6.35;;;5.00;99.90;;;;;;5075380;28;20188;-69
2021/01/06 09:23:59;;;;;;;11.60;7.70;;;5.10;99.90;;;;;;5075456;28;20168;-69
2021/01/06 09:26:27;;;;;;;10.77;6.60;;;5.00;99.90;;;;;;5075282;28;20163;-69
2021/01/06 09:29:06;;;;;;;7.38;6.65;;;5.20;80.40;;;;;;5075527;28;20192;-68
2021/01/06 09:31:37;;;;;;;10.60;6.65;;;4.80;49.10;;;;;;5075255;28;20617;-69
2021/01/06 09:34:03;;;;;;;8.98;6.82;;;4.80;99.90;;;;;;5075131;28;20164;-68
2021/01/06 09:36:30;;;;;;;8.23;5.85;;;5.10;99.90;;;;;;5075066;28;20227;-69
2021/01/06 09:38:57;;;;;;;9.45;6.38;;;5.10;99.90;;;;;;5075238;28;20184;-69
2021/01/06 09:41:30;;;;;;;7.40;5.72;;;5.30;99.90;;;;;;5075303;28;20217;-68
2021/01/06 09:44:02;;;;;;;9.60;6.38;;;5.30;63.80;;;;;;5074852;28;20567;-68
2021/01/06 09:46:57;;;;;;;10.07;6.43;;;5.30;55.90;;;;;;5074979;28;20571;-69
2021/01/06 09:49:30;;;;;;;9.20;6.47;;;4.90;71.10;;;;;;5054791;28;20273;-69
2021/01/06 09:52:01;;;;;;;7.90;5.50;;;4.80;99.90;;;;;;5074862;28;20152;-69
2021/01/06 09:54:27;;;;;;;9.82;7.75;;;4.80;99.90;;;;;;5074960;28;20156;-69
2021/01/06 09:56:54;;;;;;;9.60;6.82;;;5.00;99.90;;;;;;5074654;28;20231;-69
2021/01/06 09:59:27;;;;;;;9.65;7.07;;;5.10;99.90;;;;;;5074336;28;20196;-69
2021/01/06 10:01:57;;;;;;;8.65;6.43;;;5.00;99.90;;;;;;5073516;28;20597;-68
2021/01/06 10:04:27;;;;;;;13.10;8.32;;;4.90;98.50;;;;;;5074514;28;20180;-68
2021/01/06 10:07:04;;;;;;;9.00;6.90;;;5.00;99.90;;;;;;5074599;28;20535;-68
2021/01/06 10:09:35;;;;;;;6.78;5.93;;;5.40;99.90;;;;;;5074241;28;20245;-68
2021/01/06 10:12:21;;;;;;;11.07;7.45;;;5.30;99.90;;;;;;5074391;28;20168;-67
2021/01/06 10:15:12;;;;;;;9.60;7.57;;;5.60;99.90;;;;;;5074987;28;20247;-67
2021/01/06 10:17:42;;;;;;;11.18;7.13;;;5.50;99.90;;;;;;5073625;28;20290;-68
2021/01/06 10:20:28;;;;;;;10.68;7.57;;;5.40;99.90;;;;;;5073912;28;20203;-68
2021/01/06 10:23:00;;;;;;;10.98;7.47;;;5.40;65.00;;;;;;5073896;28;20689;-67
2021/01/06 10:25:50;;;;;;;9.23;7.30;;;5.60;36.50;;;;;;5073892;28;20159;-68
2021/01/06 10:28:35;;;;;;;11.05;7.53;;;5.50;9.30;;;;;;5073699;28;20172;-67
2021/01/06 10:31:13;;;;;;;7.57;6.47;;;5.90;19.40;;;;;;5074432;28;20233;-68
2021/01/06 10:34:03;;;;;;;8.98;6.97;;;6.40;1.00;;;;;;5073732;28;20172;-68
2021/01/06 10:37:08;;;;;;;10.15;7.15;;;7.00;1.00;;;;;;5073836;28;20198;-68
2021/01/06 10:39:41;;;;;;;7.60;6.38;;;7.10;1.00;;;;;;5073590;28;20568;-68
2021/01/06 10:42:21;;;;;;;10.90;8.20;;;6.30;1.00;;;;;;5073840;28;20566;-68
2021/01/06 10:44:53;;;;;;;9.48;7.50;;;6.60;1.00;;;;;;5073867;28;20164;-68
2021/01/06 10:47:31;;;;;;;8.75;6.75;;;6.50;1.00;;;;;;5073995;28;20172;-68
2021/01/06 10:50:00;;;;;;;10.55;7.60;;;6.50;1.00;;;;;;5073492;28;20637;-68
2021/01/06 10:52:33;;;;;;;9.65;8.07;;;6.60;1.00;;;;;;5073803;28;20182;-68
2021/01/06 10:55:04;;;;;;;9.93;7.72;;;6.50;1.00;;;;;;5073841;28;20160;-68
2021/01/06 10:57:37;;;;;;;10.90;8.63;;;6.50;1.00;;;;;;5073268;28;20195;-69
2021/01/06 11:00:12;;;;;;;9.90;7.20;;;6.40;1.00;;;;;;5072066;28;20192;-68
2021/01/06 11:02:58;;;;;;;21.10;8.40;;;6.30;1.00;;;;;;5073572;28;20190;-67
2021/01/06 11:05:52;;;;;;;10.85;8.27;;;6.00;1.00;;;;;;5073379;28;20272;-67
2021/01/06 11:08:37;;;;;;;13.75;8.98;;;6.10;1.00;;;;;;5073180;28;20179;-68
2021/01/06 11:11:18;;;;;;;11.02;8.70;;;6.40;1.00;;;;;;5073242;28;20213;-68
2021/01/06 11:14:19;;;;;;;13.88;9.35;;;6.20;1.00;;;;;;5072127;28;20156;-68
2021/01/06 11:16:49;;;;;;;11.52;8.50;;;5.80;1.00;;;;;;5073114;28;20589;-68
2021/01/06 11:19:42;;;;;;;9.55;7.22;;;5.80;1.00;;;;;;5073048;28;20188;-69
2021/01/06 11:22:17;;;;;;;10.80;7.40;;;5.80;1.00;;;;;;5073324;28;20575;-68
2021/01/06 11:24:52;;;;;;;18.45;7.95;;;6.20;1.00;;;;;;5073369;28;20160;-68
2021/01/06 11:27:44;;;;;;;17.02;8.93;;;5.60;1.00;;;;;;5073237;28;20262;-68
2021/01/06 11:30:24;;;;;;;10.60;8.48;;;5.70;1.00;;;;;;5057236;28;20224;-68
2021/01/06 11:33:19;;;;;;;12.85;8.98;;;5.70;1.00;;;;;;5072841;28;20160;-69
2021/01/06 11:35:55;;;;;;;14.02;8.48;;;5.90;1.00;;;;;;5073076;28;20583;-68
2021/01/06 11:38:39;;;;;;;15.05;10.05;;;5.80;1.00;;;;;;5072555;28;20529;-67
2021/01/06 11:41:09;;;;;;;14.20;8.50;;;5.80;1.00;;;;;;5072980;28;20160;-69
2021/01/06 11:44:06;;;;;;;16.50;10.13;;;5.80;1.00;;;;;;5072457;28;20164;-68
2021/01/06 11:47:01;;;;;;;17.17;11.52;;;5.80;1.00;;;;;;5072524;28;20184;-68
2021/01/06 11:49:48;;;;;;;20.45;11.60;;;5.40;1.00;;;;;;5071900;28;20219;-68
2021/01/06 11:52:40;;;;;;;26.85;11.90;;;5.80;1.00;;;;;;5072899;28;20168;-68
2021/01/06 11:55:33;;;;;;;21.52;12.38;;;5.90;1.00;;;;;;5072762;28;20700;-67
2021/01/06 11:58:13;;;;;;;22.98;13.27;;;5.90;1.00;;;;;;5072862;28;20192;-68
2021/01/06 12:00:42;;;;;;;22.35;13.82;;;6.20;1.00;;;;;;5071975;28;20261;-68
2021/01/06 12:03:07;;;;;;;25.60;12.65;;;6.20;1.00;;;;;;5072669;28;20175;-67
2021/01/06 12:06:16;;;;;;;23.80;11.93;;;6.00;1.00;;;;;;5072827;28;20164;-68
2021/01/06 12:08:49;;;;;;;20.83;12.65;;;5.60;1.00;;;;;;5034462;28;20595;-68
2021/01/06 12:11:26;;;;;;;20.42;14.10;;;6.00;1.00;;;;;;5072744;28;20276;-67
2021/01/06 12:14:12;;;;;;;24.67;13.98;;;6.10;1.00;;;;;;5072824;28;20162;-68
2021/01/06 12:16:53;;;;;;;22.33;14.07;;;5.70;1.00;;;;;;5072334;28;20200;-68
2021/01/06 12:19:22;;;;;;;19.73;14.50;;;5.80;1.00;;;;;;5072902;28;20670;-69
2021/01/06 12:21:52;;;;;;;21.55;14.50;;;5.90;1.00;;;;;;5072680;28;20184;-68
2021/01/06 12:24:28;;;;;;;25.67;13.30;;;6.10;1.00;;;;;;5074346;28;20163;-68
2021/01/06 12:27:00;;;;;;;23.92;14.90;;;6.00;1.00;;;;;;5076660;28;20164;-68
2021/01/06 12:29:46;;;;;;;24.02;12.52;;;5.80;1.00;;;;;;5076075;28;20192;-68
2021/01/06 12:32:20;;;;;;;17.02;11.43;;;5.60;1.00;;;;;;5076406;28;20524;-69
2021/01/06 12:34:47;;;;;;;35.30;13.27;;;5.80;1.00;;;;;;5075865;28;20629;-68
2021/01/06 12:37:13;;;;;;;17.77;12.82;;;5.70;1.00;;;;;;5076124;28;20282;-67
2021/01/06 12:39:59;;;;;;;17.33;12.50;;;5.90;1.00;;;;;;5076538;28;20219;-67
2021/01/06 12:42:35;;;;;;;19.88;12.00;;;5.70;1.00;;;;;;5078092;28;20605;-67
2021/01/06 12:45:06;;;;;;;18.27;11.05;;;5.50;1.00;;;;;;5077698;28;20156;-68
2021/01/06 12:47:40;;;;;;;18.35;11.57;;;5.50;1.00;;;;;;5076169;28;20176;-68
2021/01/06 12:50:23;;;;;;;19.92;12.13;;;5.40;1.00;;;;;;5076258;28;20214;-68
2021/01/06 12:52:54;;;;;;;15.90;11.13;;;5.50;1.00;;;;;;5075308;28;20203;-69
2021/01/06 12:55:34;;;;;;;19.13;9.55;;;5.70;1.00;;;;;;5076228;28;20153;-69
2021/01/06 12:58:10;;;;;;;34.38;13.00;;;5.70;1.00;;;;;;5075727;28;20191;-67
2021/01/06 13:00:42;;;;;;;25.20;11.57;;;5.80;1.00;;;;;;5075718;28;20180;-68
2021/01/06 13:03:28;;;;;;;29.77;10.63;;;5.70;1.00;;;;;;5075437;28;20168;-69
2021/01/06 13:06:18;;;;;;;14.35;9.98;;;5.60;1.00;;;;;;5075367;28;20175;-69
2021/01/06 13:08:49;;;;;;;15.20;10.70;;;5.30;1.00;;;;;;5075502;28;20180;-67
2021/01/06 13:11:30;;;;;;;14.98;10.05;;;5.30;1.00;;;;;;5076132;28;20553;-68
2021/01/06 13:14:14;;;;;;;13.40;10.02;;;5.50;1.00;;;;;;5076009;28;20160;-68
2021/01/06 13:16:50;;;;;;;14.20;10.27;;;5.80;1.00;;;;;;5075981;28;20198;-68
2021/01/06 13:19:38;;;;;;;14.85;9.43;;;5.20;1.00;;;;;;5075383;28;20198;-69
2021/01/06 13:22:19;;;;;;;17.48;9.80;;;5.60;1.00;;;;;;5074938;28;20271;-68
2021/01/06 13:24:49;;;;;;;21.58;11.20;;;5.60;1.00;;;;;;5075289;28;20157;-68
2021/01/06 13:27:42;;;;;;;19.85;10.55;;;5.70;1.00;;;;;;5075220;28;20176;-68
2021/01/06 13:30:24;;;;;;;18.35;10.60;;;5.70;1.00;;;;;;5075403;28;20687;-70
2021/01/06 13:32:57;;;;;;;12.77;9.15;;;5.70;1.00;;;;;;5075539;28;20510;-69
2021/01/06 13:35:34;;;;;;;15.25;9.68;;;5.70;1.00;;;;;;5073894;28;20547;-69
2021/01/06 13:38:10;;;;;;;22.67;11.43;;;5.40;1.00;;;;;;5075476;28;20632;-69
2021/01/06 13:40:37;;;;;;;27.90;9.32;;;5.50;1.00;;;;;;5075232;28;20595;-69
2021/01/06 13:43:23;;;;;;;17.33;10.43;;;5.60;1.00;;;;;;5074852;28;20164;-69